Time;durP1;ratioP1;P1;durP2;ratioP2;P2;SDS_P1;SDS_P2;PMS_P1;PMS_P2;Temp;Humidity;BMP_temperature;BMP_pressure;BME280_temperature;BME280_humidity;BME280_pressure;Samples;Min_cycle;Max_cycle;Signal;HPM_P1;HPM_P2
2022/08/06 00:01:48;;;;;;;0.57;0.57;;;18.60;69.40;;;;;;4947564;29;20035;-70
2022/08/06 00:04:13;;;;;;;1.67;0.50;;;18.50;69.40;;;;;;4944281;28;20044;-70
2022/08/06 00:06:39;;;;;;;2.97;0.40;;;18.50;69.20;;;;;;4944821;29;20066;-70
2022/08/06 00:09:05;;;;;;;0.55;0.40;;;18.50;69.10;;;;;;4940935;29;20047;-70
2022/08/06 00:11:31;;;;;;;1.55;0.32;;;18.50;69.20;;;;;;4942712;29;20034;-70
2022/08/06 00:13:57;;;;;;;4.22;0.50;;;18.50;69.10;;;;;;4945073;28;20028;-71
2022/08/06 00:16:23;;;;;;;0.60;0.38;;;18.50;69.10;;;;;;4947643;29;20444;-71
2022/08/06 00:18:49;;;;;;;0.22;0.22;;;18.40;68.90;;;;;;4947588;29;20492;-70
2022/08/06 00:21:14;;;;;;;3.72;0.40;;;18.40;68.90;;;;;;4945332;28;20138;-70
2022/08/06 00:23:40;;;;;;;2.20;0.50;;;18.30;69.00;;;;;;4948817;28;20039;-70
2022/08/06 00:26:06;;;;;;;0.68;0.50;;;18.30;69.00;;;;;;4940443;29;20051;-70
2022/08/06 00:28:33;;;;;;;4.45;0.50;;;18.20;69.20;;;;;;4942005;29;20038;-70
2022/08/06 00:31:01;;;;;;;0.90;0.50;;;18.10;69.30;;;;;;4938162;29;20075;-70
2022/08/06 00:33:27;;;;;;;0.60;0.43;;;18.10;70.10;;;;;;4939324;29;20066;-70
2022/08/06 00:35:53;;;;;;;2.80;0.50;;;18.10;69.50;;;;;;4946567;29;20135;-70
2022/08/06 00:38:18;;;;;;;0.68;0.30;;;18.10;69.60;;;;;;4946305;28;20403;-70
2022/08/06 00:40:44;;;;;;;1.25;0.50;;;18.00;69.60;;;;;;4946270;29;20031;-70
2022/08/06 00:43:10;;;;;;;0.47;0.30;;;18.00;69.40;;;;;;4942041;28;20599;-70
2022/08/06 00:45:36;;;;;;;0.50;0.32;;;18.00;69.70;;;;;;4942350;29;20031;-70
2022/08/06 00:48:01;;;;;;;0.50;0.30;;;18.00;69.60;;;;;;4942564;28;20122;-70
2022/08/06 00:50:27;;;;;;;1.63;0.68;;;17.90;69.70;;;;;;4940600;29;20034;-69
2022/08/06 00:52:53;;;;;;;5.05;0.40;;;17.90;69.90;;;;;;4939405;28;20749;-70
2022/08/06 00:55:20;;;;;;;1.10;0.22;;;17.90;70.00;;;;;;4946384;28;20061;-70
2022/08/06 00:57:46;;;;;;;1.55;0.35;;;17.80;70.10;;;;;;4945709;29;20023;-70
2022/08/06 01:00:13;;;;;;;0.43;0.30;;;17.80;70.10;;;;;;4943145;28;20472;-70
2022/08/06 01:02:39;;;;;;;2.92;0.30;;;17.80;70.20;;;;;;4942353;29;20577;-70
2022/08/06 01:05:05;;;;;;;1.02;0.63;;;17.80;70.30;;;;;;4939610;29;20031;-70
2022/08/06 01:07:31;;;;;;;0.90;0.40;;;17.80;70.40;;;;;;4941711;28;20027;-70
2022/08/06 01:09:57;;;;;;;0.43;0.38;;;17.80;70.40;;;;;;4937494;28;20038;-70
2022/08/06 01:12:23;;;;;;;0.30;0.30;;;17.70;70.30;;;;;;4941988;28;20567;-70
2022/08/06 01:14:49;;;;;;;2.10;0.40;;;17.70;70.20;;;;;;4946064;29;20027;-70
2022/08/06 01:17:22;;;;;;;1.88;0.40;;;17.70;70.60;;;;;;4943834;29;20830;-70
2022/08/06 01:20:20;;;;;;;1.85;0.32;;;17.60;70.40;;;;;;4943649;29;20515;-70
2022/08/06 01:23:11;;;;;;;1.05;0.40;;;17.60;70.80;;;;;;4940971;29;20035;-70
2022/08/06 01:26:15;;;;;;;1.38;0.68;;;17.50;71.00;;;;;;4940918;29;20283;-69
2022/08/06 01:28:50;;;;;;;1.67;0.50;;;17.50;71.00;;;;;;4940659;29;20027;-69
2022/08/06 01:32:04;;;;;;;2.50;0.40;;;17.50;71.30;;;;;;4942465;29;20041;-69
2022/08/06 01:34:33;;;;;;;3.58;0.22;;;17.50;71.30;;;;;;4935448;28;20399;-70
2022/08/06 01:37:09;;;;;;;0.30;0.30;;;17.40;71.60;;;;;;4943651;28;20027;-70
2022/08/06 01:39:37;;;;;;;0.98;0.28;;;17.30;71.70;;;;;;4941426;29;20043;-70
2022/08/06 01:42:05;;;;;;;1.98;0.28;;;17.30;71.80;;;;;;4941548;28;20043;-70
2022/08/06 01:44:34;;;;;;;1.52;0.35;;;17.30;72.10;;;;;;4939302;29;20063;-70
2022/08/06 01:47:05;;;;;;;2.00;0.40;;;17.20;72.10;;;;;;4937064;28;20122;-70
2022/08/06 01:49:34;;;;;;;0.82;0.30;;;17.20;72.60;;;;;;4938900;29;20062;-70
2022/08/06 01:52:01;;;;;;;4.47;0.52;;;17.20;72.40;;;;;;4942123;29;20022;-70
2022/08/06 01:54:29;;;;;;;1.30;0.63;;;17.10;72.70;;;;;;4944800;29;20035;-70
2022/08/06 01:56:57;;;;;;;2.60;0.50;;;17.10;73.00;;;;;;4944963;28;20039;-70
2022/08/06 01:59:29;;;;;;;1.88;0.50;;;17.10;73.40;;;;;;4942517;29;20495;-70
2022/08/06 02:01:57;;;;;;;2.00;0.50;;;17.00;73.60;;;;;;4939867;29;20070;-70
2022/08/06 02:04:27;;;;;;;0.40;0.40;;;17.00;73.60;;;;;;4938544;29;20459;-70
2022/08/06 02:06:56;;;;;;;2.33;0.68;;;16.90;73.60;;;;;;4936993;28;20043;-70
2022/08/06 02:09:23;;;;;;;1.23;0.45;;;16.90;73.70;;;;;;4940665;29;20035;-71
2022/08/06 02:12:10;;;;;;;0.60;0.52;;;16.80;73.90;;;;;;4944581;29;20027;-70
2022/08/06 02:14:44;;;;;;;0.60;0.30;;;16.80;74.20;;;;;;4941271;28;20502;-71
2022/08/06 02:17:16;;;;;;;1.02;0.40;;;16.70;74.40;;;;;;4940489;28;20036;-70
2022/08/06 02:19:48;;;;;;;1.17;0.82;;;16.70;74.60;;;;;;4943750;29;20039;-70
2022/08/06 02:22:15;;;;;;;1.85;0.57;;;16.70;74.60;;;;;;4937899;29;20046;-69
2022/08/06 02:24:41;;;;;;;2.15;0.40;;;16.70;74.40;;;;;;4938690;28;20400;-70
2022/08/06 02:27:09;;;;;;;1.45;0.57;;;16.70;74.40;;;;;;4939021;29;20085;-70
2022/08/06 02:29:36;;;;;;;0.55;0.30;;;16.60;74.40;;;;;;4944893;29;20038;-70
2022/08/06 02:32:02;;;;;;;0.85;0.30;;;16.60;74.80;;;;;;4942783;28;20057;-70
2022/08/06 02:34:28;;;;;;;1.38;0.35;;;16.60;74.90;;;;;;4942682;29;20723;-69
2022/08/06 02:37:03;;;;;;;1.00;0.40;;;16.60;74.80;;;;;;4940965;29;20037;-70
2022/08/06 02:39:35;;;;;;;0.70;0.50;;;16.60;74.90;;;;;;4940646;29;20034;-70
2022/08/06 02:42:19;;;;;;;2.10;0.50;;;16.60;74.90;;;;;;4936606;28;20047;-70
2022/08/06 02:44:54;;;;;;;0.73;0.40;;;16.60;74.90;;;;;;4938628;29;20035;-70
2022/08/06 02:47:51;;;;;;;2.05;0.43;;;16.60;75.00;;;;;;4943828;29;20038;-71
2022/08/06 02:50:21;;;;;;;1.52;0.90;;;16.60;75.40;;;;;;4943049;29;20052;-71
2022/08/06 02:52:53;;;;;;;0.98;0.65;;;16.50;75.60;;;;;;4942954;29;20035;-70
2022/08/06 02:55:21;;;;;;;1.15;0.55;;;16.50;75.60;;;;;;4940586;29;20036;-70
2022/08/06 02:57:51;;;;;;;0.88;0.40;;;16.50;75.70;;;;;;4940521;28;20035;-70
2022/08/06 03:00:18;;;;;;;1.05;0.60;;;16.50;75.90;;;;;;4938154;29;20063;-70
2022/08/06 03:02:45;;;;;;;0.57;0.40;;;16.50;76.00;;;;;;4937278;29;20034;-70
2022/08/06 03:05:17;;;;;;;1.15;0.50;;;16.40;76.10;;;;;;4938864;29;20039;-70
2022/08/06 03:07:44;;;;;;;1.45;0.30;;;16.40;76.80;;;;;;4945397;29;20613;-70
2022/08/06 03:10:11;;;;;;;0.50;0.50;;;16.40;76.70;;;;;;4942572;28;20171;-70
2022/08/06 03:12:38;;;;;;;1.65;0.47;;;16.30;76.90;;;;;;4941836;28;20023;-70
2022/08/06 03:15:05;;;;;;;2.40;0.60;;;16.30;76.70;;;;;;4939300;29;20027;-70
2022/08/06 03:17:33;;;;;;;0.85;0.57;;;16.20;77.10;;;;;;4953742;28;20031;-70
2022/08/06 03:20:01;;;;;;;0.43;0.43;;;16.20;77.20;;;;;;4939498;28;20073;-70
2022/08/06 03:22:30;;;;;;;0.63;0.50;;;16.20;77.30;;;;;;4937319;28;20570;-70
2022/08/06 03:24:57;;;;;;;0.60;0.60;;;16.20;77.50;;;;;;4941321;28;20664;-69
2022/08/06 03:27:24;;;;;;;2.03;0.70;;;16.20;77.50;;;;;;4946071;28;20047;-69
2022/08/06 03:29:51;;;;;;;1.92;0.65;;;16.10;77.50;;;;;;4947912;29;20422;-70
2022/08/06 03:32:19;;;;;;;0.47;0.47;;;16.10;77.60;;;;;;4943251;28;20039;-70
2022/08/06 03:34:46;;;;;;;1.73;0.60;;;16.00;78.00;;;;;;4942975;29;20027;-70
2022/08/06 03:37:13;;;;;;;0.98;0.80;;;16.00;78.20;;;;;;4940800;29;20036;-70
2022/08/06 03:39:41;;;;;;;1.35;0.70;;;16.00;78.30;;;;;;4942334;29;20027;-70
2022/08/06 03:42:07;;;;;;;1.00;0.50;;;16.00;78.50;;;;;;4937782;29;20040;-70
2022/08/06 03:44:33;;;;;;;2.28;0.55;;;16.00;78.60;;;;;;4948251;29;20035;-70
2022/08/06 03:47:11;;;;;;;1.63;0.60;;;16.00;78.50;;;;;;4948066;28;20050;-69
2022/08/06 03:49:47;;;;;;;0.90;0.80;;;16.00;78.60;;;;;;4943934;29;20035;-70
2022/08/06 03:52:19;;;;;;;0.63;0.63;;;16.00;78.60;;;;;;4942634;28;20035;-68
2022/08/06 03:54:49;;;;;;;1.25;0.52;;;16.00;78.60;;;;;;4942287;29;20480;-68
2022/08/06 03:57:19;;;;;;;0.68;0.60;;;16.00;78.70;;;;;;4940577;29;20047;-67
2022/08/06 03:59:48;;;;;;;1.42;0.77;;;16.00;78.80;;;;;;4940419;28;20462;-69
2022/08/06 04:02:15;;;;;;;1.25;0.47;;;16.00;78.80;;;;;;4941629;28;20156;-68
2022/08/06 04:04:43;;;;;;;2.33;0.70;;;16.00;78.40;;;;;;4947014;29;20054;-67
2022/08/06 04:07:11;;;;;;;1.05;0.60;;;16.00;78.70;;;;;;4944868;29;20635;-67
2022/08/06 04:09:38;;;;;;;1.17;0.43;;;15.90;78.70;;;;;;4945233;29;20419;-67
2022/08/06 04:12:05;;;;;;;2.92;0.60;;;15.90;79.00;;;;;;4941656;28;20028;-68
2022/08/06 04:14:31;;;;;;;0.70;0.50;;;15.90;78.80;;;;;;4941619;29;20023;-67
2022/08/06 04:16:58;;;;;;;3.65;0.80;;;15.80;78.90;;;;;;4939321;29;20106;-67
2022/08/06 04:19:24;;;;;;;1.10;0.63;;;15.80;79.20;;;;;;4940200;29;20035;-67
2022/08/06 04:21:50;;;;;;;0.88;0.50;;;15.80;79.50;;;;;;4946863;28;20038;-67
2022/08/06 04:24:16;;;;;;;8.05;0.70;;;15.80;79.70;;;;;;4945956;28;20031;-67
2022/08/06 04:26:44;;;;;;;1.63;0.57;;;15.80;79.80;;;;;;4945207;29;20039;-67
2022/08/06 04:29:15;;;;;;;1.55;0.95;;;15.80;79.80;;;;;;4942200;28;20114;-67
2022/08/06 04:31:44;;;;;;;0.65;0.40;;;15.90;79.70;;;;;;4943133;29;20038;-67
2022/08/06 04:34:11;;;;;;;3.58;0.90;;;15.90;79.60;;;;;;4939033;28;20039;-66
2022/08/06 04:36:37;;;;;;;0.50;0.50;;;15.90;79.70;;;;;;4941715;28;20368;-67
2022/08/06 04:39:03;;;;;;;2.60;1.02;;;15.90;79.60;;;;;;4939003;29;20038;-67
2022/08/06 04:41:30;;;;;;;1.52;0.70;;;15.90;79.70;;;;;;4948806;28;20060;-67
2022/08/06 04:43:56;;;;;;;0.80;0.70;;;15.90;79.50;;;;;;4942136;29;20035;-67
2022/08/06 04:46:23;;;;;;;4.00;0.75;;;15.90;79.60;;;;;;4944682;28;20751;-68
2022/08/06 04:48:49;;;;;;;2.67;0.63;;;15.90;79.80;;;;;;4942052;29;20024;-68
2022/08/06 04:51:14;;;;;;;1.38;0.80;;;15.90;79.70;;;;;;4940277;29;20039;-67
2022/08/06 04:53:41;;;;;;;2.58;0.80;;;15.90;79.60;;;;;;4944572;28;20024;-67
2022/08/06 04:56:09;;;;;;;2.70;0.80;;;15.90;79.40;;;;;;4942974;29;20031;-67
2022/08/06 04:58:35;;;;;;;4.40;0.68;;;15.90;79.40;;;;;;4943549;29;20755;-67
2022/08/06 05:01:01;;;;;;;2.22;0.73;;;15.90;79.60;;;;;;4946327;28;20138;-67
2022/08/06 05:03:28;;;;;;;1.63;0.52;;;15.90;79.40;;;;;;4944371;29;20156;-67
2022/08/06 05:06:09;;;;;;;1.95;0.70;;;15.90;79.70;;;;;;4943721;29;20066;-67
2022/08/06 05:08:39;;;;;;;1.60;0.77;;;15.90;79.60;;;;;;4941821;29;20030;-67
2022/08/06 05:11:18;;;;;;;2.25;0.70;;;15.90;79.60;;;;;;4939133;29;20039;-67
2022/08/06 05:13:46;;;;;;;1.25;0.50;;;15.90;79.70;;;;;;4939901;28;20031;-67
2022/08/06 05:16:14;;;;;;;1.27;0.80;;;15.90;79.70;;;;;;4943471;29;20059;-65
2022/08/06 05:18:44;;;;;;;1.85;0.85;;;15.90;79.80;;;;;;4946351;29;20046;-67
2022/08/06 05:21:14;;;;;;;2.05;1.40;;;15.90;79.70;;;;;;4944512;29;20221;-67
2022/08/06 05:23:53;;;;;;;5.60;0.77;;;16.00;79.80;;;;;;4943873;29;20167;-67
2022/08/06 05:26:19;;;;;;;4.80;0.70;;;16.00;79.80;;;;;;4941352;29;20511;-67
2022/08/06 05:28:45;;;;;;;2.28;0.73;;;16.00;79.80;;;;;;4942070;28;20146;-67
2022/08/06 05:31:11;;;;;;;0.60;0.57;;;16.10;80.00;;;;;;4938510;29;20472;-67
2022/08/06 05:33:38;;;;;;;1.88;0.60;;;16.10;79.90;;;;;;4939794;28;20090;-67
2022/08/06 05:36:10;;;;;;;1.38;0.65;;;16.10;79.60;;;;;;4939492;29;20385;-67
2022/08/06 05:38:40;;;;;;;1.52;0.60;;;16.10;79.60;;;;;;4943443;29;20046;-67
2022/08/06 05:41:08;;;;;;;2.30;0.85;;;16.20;79.40;;;;;;4943565;28;20122;-67
2022/08/06 05:43:35;;;;;;;1.00;0.40;;;16.30;79.40;;;;;;4943365;28;20063;-67
2022/08/06 05:46:06;;;;;;;2.03;0.60;;;16.30;79.00;;;;;;4940567;29;20440;-65
2022/08/06 05:48:38;;;;;;;0.70;0.50;;;16.40;78.70;;;;;;4940946;28;20035;-67
2022/08/06 05:51:12;;;;;;;2.60;0.55;;;16.60;78.40;;;;;;4937676;29;20043;-67
2022/08/06 05:53:44;;;;;;;3.53;0.60;;;16.70;77.60;;;;;;4938903;28;20024;-68
2022/08/06 05:56:15;;;;;;;1.17;0.57;;;16.80;78.00;;;;;;4942728;29;20122;-67
2022/08/06 05:58:51;;;;;;;2.10;0.68;;;16.90;76.60;;;;;;4944618;29;20074;-67
2022/08/06 06:01:17;;;;;;;0.75;0.52;;;16.90;76.20;;;;;;4943461;28;20078;-67
2022/08/06 06:03:44;;;;;;;1.40;0.77;;;17.00;76.30;;;;;;4942318;28;20047;-67
2022/08/06 06:06:11;;;;;;;4.05;0.60;;;17.00;76.30;;;;;;4939299;29;20039;-68
2022/08/06 06:08:38;;;;;;;1.27;0.68;;;17.10;76.00;;;;;;4940420;29;20126;-69
2022/08/06 06:11:07;;;;;;;2.35;0.52;;;17.10;75.90;;;;;;4936285;29;20071;-68
2022/08/06 06:13:34;;;;;;;1.00;0.60;;;17.20;75.60;;;;;;4932955;29;20121;-68
2022/08/06 06:16:19;;;;;;;2.15;0.50;;;17.30;75.20;;;;;;4945202;29;20124;-67
2022/08/06 06:18:48;;;;;;;5.13;0.60;;;17.40;75.10;;;;;;4942822;29;20455;-67
2022/08/06 06:21:20;;;;;;;5.13;0.70;;;17.40;74.00;;;;;;4941490;28;20094;-68
2022/08/06 06:24:01;;;;;;;1.33;0.52;;;17.50;73.90;;;;;;4940213;28;20121;-68
2022/08/06 06:26:44;;;;;;;0.75;0.43;;;17.60;73.80;;;;;;4940450;29;20035;-66
2022/08/06 06:29:20;;;;;;;4.38;0.52;;;17.60;73.70;;;;;;4939532;28;20063;-68
2022/08/06 06:32:20;;;;;;;2.13;0.50;;;17.70;74.10;;;;;;4936630;29;20038;-68
2022/08/06 06:35:01;;;;;;;1.25;0.70;;;17.80;73.60;;;;;;4943266;29;20027;-67
2022/08/06 06:38:02;;;;;;;0.63;0.40;;;17.90;72.90;;;;;;4943068;29;20550;-67
2022/08/06 06:40:31;;;;;;;1.90;0.55;;;17.90;72.20;;;;;;4940276;29;20043;-67
2022/08/06 06:43:14;;;;;;;1.27;0.50;;;17.90;72.10;;;;;;4942326;28;20041;-67
2022/08/06 06:45:56;;;;;;;0.88;0.55;;;18.00;72.30;;;;;;4940373;29;20027;-68
2022/08/06 06:48:32;;;;;;;2.78;0.40;;;18.10;71.70;;;;;;4937695;29;20055;-67
2022/08/06 06:51:03;;;;;;;2.92;0.50;;;18.20;71.40;;;;;;4938484;28;20030;-68
2022/08/06 06:53:34;;;;;;;0.43;0.40;;;18.20;71.70;;;;;;4944162;29;20031;-68
2022/08/06 06:56:00;;;;;;;0.45;0.40;;;18.30;70.80;;;;;;4940845;29;20031;-68
2022/08/06 06:58:34;;;;;;;1.25;0.38;;;18.30;70.50;;;;;;4941918;29;20466;-67
2022/08/06 07:01:03;;;;;;;3.67;0.60;;;18.40;69.60;;;;;;4942681;28;20042;-68
2022/08/06 07:03:33;;;;;;;3.83;0.50;;;18.40;69.40;;;;;;4943699;28;20035;-68
2022/08/06 07:06:01;;;;;;;1.40;0.30;;;18.50;69.50;;;;;;4941042;28;20039;-68
2022/08/06 07:08:29;;;;;;;0.75;0.32;;;18.60;69.20;;;;;;4941906;29;20399;-68
2022/08/06 07:10:55;;;;;;;0.90;0.60;;;18.70;68.40;;;;;;4945743;28;20023;-69
2022/08/06 07:13:23;;;;;;;1.75;0.35;;;18.70;68.50;;;;;;4947456;28;20028;-68
2022/08/06 07:15:50;;;;;;;1.38;0.65;;;18.90;68.10;;;;;;4946882;29;20504;-68
2022/08/06 07:18:18;;;;;;;1.50;0.25;;;19.00;67.20;;;;;;4944384;28;20027;-67
2022/08/06 07:20:45;;;;;;;0.47;0.30;;;19.10;66.20;;;;;;4944961;29;21055;-67
2022/08/06 07:23:11;;;;;;;0.88;0.40;;;19.20;66.50;;;;;;4940447;29;20035;-67
2022/08/06 07:25:41;;;;;;;1.65;0.32;;;19.20;66.20;;;;;;4942915;29;20308;-68
2022/08/06 07:28:10;;;;;;;2.58;0.60;;;19.30;66.00;;;;;;4939028;29;20489;-68
2022/08/06 07:30:36;;;;;;;1.17;0.40;;;19.30;65.20;;;;;;4948540;29;20039;-68
2022/08/06 07:33:03;;;;;;;1.13;0.47;;;19.40;65.80;;;;;;4946847;28;20035;-68
2022/08/06 07:35:29;;;;;;;2.17;0.40;;;19.40;65.60;;;;;;4945755;29;20041;-67
2022/08/06 07:38:02;;;;;;;3.40;0.60;;;19.40;63.40;;;;;;4945444;28;20122;-67
2022/08/06 07:40:38;;;;;;;1.17;0.50;;;19.40;63.90;;;;;;4944076;28;20027;-68
2022/08/06 07:43:17;;;;;;;0.98;0.45;;;19.50;63.80;;;;;;4939970;29;20512;-68
2022/08/06 07:45:44;;;;;;;3.60;0.70;;;19.60;63.90;;;;;;4943066;28;20443;-68
2022/08/06 07:48:13;;;;;;;5.25;0.98;;;19.60;63.80;;;;;;4941792;29;20042;-68
2022/08/06 07:50:44;;;;;;;2.45;0.65;;;19.70;63.70;;;;;;4947636;29;20558;-66
2022/08/06 07:53:12;;;;;;;2.45;0.40;;;19.70;63.40;;;;;;4946093;28;20040;-67
2022/08/06 07:55:38;;;;;;;1.70;0.30;;;19.80;62.80;;;;;;4945401;28;20027;-68
2022/08/06 07:58:06;;;;;;;0.65;0.38;;;19.90;62.70;;;;;;4944699;28;20023;-68
2022/08/06 08:00:32;;;;;;;1.58;0.40;;;19.90;61.20;;;;;;4946751;28;20542;-68
2022/08/06 08:08:30;;;;;;;4.43;0.47;;;20.20;59.10;;;;;;4948710;29;20031;-68
2022/08/06 08:10:57;;;;;;;0.45;0.25;;;20.30;59.80;;;;;;4944618;28;20142;-67
2022/08/06 08:13:24;;;;;;;1.40;0.32;;;20.40;58.20;;;;;;4945125;28;20544;-68
2022/08/06 08:15:51;;;;;;;0.50;0.28;;;20.40;57.80;;;;;;4945270;29;20089;-67
2022/08/06 08:18:17;;;;;;;0.47;0.22;;;20.50;57.70;;;;;;4945258;29;20039;-67
2022/08/06 08:20:45;;;;;;;0.75;0.22;;;20.50;57.70;;;;;;4943383;29;20387;-68
2022/08/06 08:23:13;;;;;;;0.20;0.20;;;20.60;57.50;;;;;;4938969;29;20087;-68
2022/08/06 08:25:39;;;;;;;0.60;0.30;;;20.60;57.70;;;;;;4941293;28;20082;-68
2022/08/06 08:28:06;;;;;;;2.50;0.50;;;20.70;57.70;;;;;;4947416;28;20046;-68
2022/08/06 08:30:31;;;;;;;0.75;0.32;;;20.80;57.30;;;;;;4944848;29;20203;-68
2022/08/06 08:32:57;;;;;;;1.58;0.30;;;20.90;57.40;;;;;;4944630;28;20154;-69
2022/08/06 08:35:23;;;;;;;2.75;0.40;;;21.00;57.20;;;;;;4943692;29;20451;-68
2022/08/06 08:37:48;;;;;;;2.03;0.30;;;21.00;57.00;;;;;;4943972;28;20504;-68
2022/08/06 08:40:14;;;;;;;3.30;0.35;;;21.10;55.30;;;;;;4942844;28;20599;-68
2022/08/06 08:42:45;;;;;;;1.25;0.20;;;21.20;55.30;;;;;;4940747;29;20039;-68
2022/08/06 08:45:12;;;;;;;2.85;0.30;;;21.30;55.10;;;;;;4941922;29;20039;-68
2022/08/06 08:47:45;;;;;;;0.85;0.28;;;21.30;53.10;;;;;;4947045;29;20034;-68
2022/08/06 08:50:11;;;;;;;1.73;0.40;;;21.40;53.00;;;;;;4945152;29;20043;-68
2022/08/06 08:52:43;;;;;;;0.57;0.15;;;21.50;53.10;;;;;;4944910;29;20035;-67
2022/08/06 08:55:12;;;;;;;1.42;0.40;;;21.60;52.80;;;;;;4941772;28;20039;-68
2022/08/06 08:57:38;;;;;;;1.65;0.40;;;21.70;51.90;;;;;;4942829;29;20028;-68
2022/08/06 09:00:06;;;;;;;0.20;0.20;;;21.70;51.30;;;;;;4941612;29;20234;-68
2022/08/06 09:02:32;;;;;;;1.27;0.40;;;21.80;50.60;;;;;;4940544;28;20035;-68
2022/08/06 09:04:59;;;;;;;0.05;0.05;;;21.80;50.30;;;;;;4947929;29;20035;-67
2022/08/06 09:07:27;;;;;;;0.08;0.08;;;21.90;49.90;;;;;;4945935;29;20039;-68
2022/08/06 09:09:53;;;;;;;3.15;0.40;;;21.90;49.50;;;;;;4943031;29;20606;-68
2022/08/06 09:12:19;;;;;;;1.15;0.15;;;22.00;48.10;;;;;;4942565;28;20396;-67
2022/08/06 09:14:46;;;;;;;1.23;0.22;;;22.20;49.90;;;;;;4943389;29;20046;-70
2022/08/06 09:17:12;;;;;;;0.65;0.65;;;22.30;49.70;;;;;;4939028;29;20040;-71
2022/08/06 09:19:38;;;;;;;0.38;0.00;;;22.30;49.00;;;;;;4940625;29;20027;-70
2022/08/06 09:22:05;;;;;;;0.98;0.30;;;22.30;48.70;;;;;;4940437;29;20054;-70
2022/08/06 09:24:32;;;;;;;0.55;0.20;;;22.30;48.30;;;;;;4946306;28;20062;-70
2022/08/06 09:27:01;;;;;;;0.25;0.10;;;22.40;48.80;;;;;;4945381;29;20135;-70
2022/08/06 09:29:27;;;;;;;0.10;0.10;;;22.50;49.20;;;;;;4944023;29;20035;-70
2022/08/06 09:31:53;;;;;;;1.25;0.30;;;22.60;48.20;;;;;;4945205;28;20118;-70
2022/08/06 09:34:18;;;;;;;1.50;0.10;;;22.60;47.90;;;;;;4947931;28;20109;-70
2022/08/06 09:36:46;;;;;;;0.20;0.10;;;22.60;46.20;;;;;;4949252;28;20051;-70
2022/08/06 09:39:12;;;;;;;0.77;0.75;;;22.70;46.60;;;;;;4938175;29;20447;-70
2022/08/06 09:41:51;;;;;;;0.95;0.40;;;22.70;46.30;;;;;;4947094;28;20547;-70
2022/08/06 09:44:16;;;;;;;1.33;0.30;;;22.90;47.70;;;;;;4945477;28;20045;-70
2022/08/06 09:46:43;;;;;;;0.30;0.30;;;22.90;46.10;;;;;;4944956;29;20134;-69
2022/08/06 09:49:12;;;;;;;0.85;0.30;;;22.90;47.00;;;;;;4945135;29;20047;-70
2022/08/06 09:51:38;;;;;;;0.65;0.20;;;23.00;46.60;;;;;;4943071;29;20031;-70
2022/08/06 09:54:12;;;;;;;0.55;0.30;;;23.00;44.70;;;;;;4939351;28;20032;-70
2022/08/06 09:56:38;;;;;;;1.60;0.28;;;23.10;45.30;;;;;;4940143;29;20038;-70
2022/08/06 09:59:06;;;;;;;0.40;0.20;;;23.20;46.00;;;;;;4936391;29;20043;-70
2022/08/06 10:01:43;;;;;;;1.05;0.28;;;23.40;45.90;;;;;;4942739;29;20035;-70
2022/08/06 10:04:28;;;;;;;0.10;0.10;;;23.50;44.80;;;;;;4944849;28;20035;-70
2022/08/06 10:06:56;;;;;;;0.57;0.15;;;23.50;43.00;;;;;;4941993;29;20512;-70
2022/08/06 10:09:23;;;;;;;0.70;0.20;;;23.60;44.40;;;;;;4942136;29;20767;-69
2022/08/06 10:11:49;;;;;;;0.65;0.20;;;23.70;44.70;;;;;;4943762;28;20042;-70
2022/08/06 10:14:28;;;;;;;1.17;0.10;;;23.70;42.50;;;;;;4939357;28;20024;-70
2022/08/06 10:17:04;;;;;;;0.20;0.05;;;23.70;44.10;;;;;;4937597;28;20031;-69
2022/08/06 10:19:30;;;;;;;1.85;0.20;;;23.70;43.80;;;;;;4942847;29;20117;-70
2022/08/06 10:22:06;;;;;;;0.22;0.00;;;23.70;42.80;;;;;;4945568;29;20159;-70
2022/08/06 10:24:37;;;;;;;1.20;0.03;;;23.60;43.40;;;;;;4941798;29;20125;-69
2022/08/06 10:27:07;;;;;;;0.75;0.20;;;23.70;42.30;;;;;;4942134;28;20130;-70
2022/08/06 10:29:50;;;;;;;0.20;0.20;;;23.70;43.30;;;;;;4940778;29;20042;-70
2022/08/06 10:32:22;;;;;;;1.30;0.40;;;23.80;44.00;;;;;;4939191;28;20107;-71
2022/08/06 10:34:51;;;;;;;0.20;0.20;;;23.90;43.50;;;;;;4938894;28;20035;-70
2022/08/06 10:37:19;;;;;;;1.70;0.35;;;24.00;41.90;;;;;;4937266;29;20040;-70
2022/08/06 10:39:52;;;;;;;0.45;0.15;;;24.00;41.80;;;;;;4945861;29;20134;-70
2022/08/06 10:42:19;;;;;;;1.20;0.20;;;24.30;42.50;;;;;;4943787;28;20114;-70
2022/08/06 10:44:45;;;;;;;2.05;0.30;;;24.40;42.50;;;;;;4943939;28;20527;-70
2022/08/06 10:47:12;;;;;;;1.88;0.30;;;24.40;42.10;;;;;;4940956;28;20405;-70
2022/08/06 10:49:38;;;;;;;0.35;0.25;;;24.50;41.50;;;;;;4941601;29;20035;-70
2022/08/06 10:52:04;;;;;;;1.65;0.43;;;24.40;42.10;;;;;;4937557;28;20733;-70
2022/08/06 10:54:31;;;;;;;0.70;0.20;;;24.20;41.80;;;;;;4939017;29;20134;-70
2022/08/06 10:56:57;;;;;;;0.43;0.28;;;24.10;42.20;;;;;;4939224;28;20039;-70
2022/08/06 10:59:23;;;;;;;3.05;0.40;;;24.00;42.50;;;;;;4945052;28;20040;-70
2022/08/06 11:02:23;;;;;;;0.15;0.00;;;24.00;42.90;;;;;;4944555;28;20035;-70
2022/08/06 11:04:59;;;;;;;2.58;0.10;;;23.90;42.10;;;;;;4921433;29;20095;-70
2022/08/06 11:07:37;;;;;;;;;;;23.90;42.80;;;;;;4941495;29;20035;-70
2022/08/06 11:10:06;;;;;;;2.08;0.20;;;23.90;42.70;;;;;;4941176;28;20276;-70
2022/08/06 11:12:48;;;;;;;2.05;0.25;;;24.00;42.70;;;;;;4938945;28;20121;-70
2022/08/06 11:15:14;;;;;;;1.00;0.40;;;24.20;43.30;;;;;;4940408;29;20031;-70
2022/08/06 11:17:45;;;;;;;1.27;0.20;;;24.30;40.50;;;;;;4945186;28;20166;-70
2022/08/06 11:20:33;;;;;;;1.23;0.38;;;24.30;41.30;;;;;;4943642;28;20078;-70
2022/08/06 11:23:00;;;;;;;1.23;0.25;;;24.30;42.20;;;;;;4939535;28;20050;-70
2022/08/06 11:25:46;;;;;;;0.82;0.40;;;24.20;41.80;;;;;;4941380;29;20039;-70
2022/08/06 11:28:35;;;;;;;0.82;0.20;;;24.10;42.20;;;;;;4938144;28;20777;-70
2022/08/06 11:31:04;;;;;;;1.98;0.70;;;24.20;42.60;;;;;;4928930;29;20044;-70
2022/08/06 11:33:32;;;;;;;2.50;0.35;;;24.20;41.40;;;;;;4938219;28;20404;-69
2022/08/06 11:36:27;;;;;;;0.20;0.15;;;24.20;42.00;;;;;;4945676;29;20216;-70
2022/08/06 11:38:52;;;;;;;0.85;0.10;;;24.10;41.10;;;;;;4940490;28;20039;-70
2022/08/06 11:41:23;;;;;;;0.20;0.10;;;24.00;42.60;;;;;;4942934;28;20047;-70
2022/08/06 11:43:52;;;;;;;0.98;0.20;;;23.90;41.40;;;;;;4940410;28;20887;-70
2022/08/06 11:46:29;;;;;;;0.73;0.28;;;23.90;41.40;;;;;;4939128;29;20174;-70
2022/08/06 11:49:03;;;;;;;1.23;0.10;;;24.00;41.60;;;;;;4941974;28;20085;-70
2022/08/06 11:51:45;;;;;;;1.35;0.22;;;24.10;42.40;;;;;;4942768;29;20031;-70
2022/08/06 11:54:28;;;;;;;0.73;0.10;;;24.30;42.10;;;;;;4947199;28;20056;-70
2022/08/06 11:57:06;;;;;;;2.55;0.30;;;24.40;40.90;;;;;;4948126;29;20051;-70
2022/08/06 11:59:49;;;;;;;0.80;0.10;;;24.60;40.80;;;;;;4940581;29;20658;-70
2022/08/06 12:02:41;;;;;;;3.13;0.20;;;24.60;40.20;;;;;;4943573;28;20040;-70
2022/08/06 12:05:13;;;;;;;0.65;0.20;;;24.60;38.10;;;;;;4941241;28;20040;-69
2022/08/06 12:07:39;;;;;;;0.10;0.05;;;24.40;39.40;;;;;;4942173;29;20034;-70
2022/08/06 12:10:11;;;;;;;1.55;0.20;;;24.30;38.20;;;;;;4938838;29;20047;-70
2022/08/06 12:12:48;;;;;;;0.63;0.10;;;24.20;38.80;;;;;;4945621;28;20039;-70
2022/08/06 12:15:16;;;;;;;0.85;0.30;;;24.10;39.80;;;;;;4947041;28;20043;-70
2022/08/06 12:17:56;;;;;;;0.10;0.10;;;24.20;40.50;;;;;;4946646;29;20090;-70
2022/08/06 12:20:34;;;;;;;0.90;0.20;;;24.30;40.20;;;;;;4944429;29;20045;-70
2022/08/06 12:23:04;;;;;;;0.40;0.10;;;24.50;40.90;;;;;;4942539;28;20121;-70
2022/08/06 12:25:31;;;;;;;0.65;0.20;;;24.60;40.70;;;;;;4942061;29;20152;-70
2022/08/06 12:27:57;;;;;;;3.78;0.70;;;24.80;40.00;;;;;;4938970;28;20117;-70
2022/08/06 12:30:23;;;;;;;2.00;0.20;;;25.00;40.00;;;;;;4946918;29;20090;-70
2022/08/06 12:33:00;;;;;;;0.30;0.28;;;25.10;40.50;;;;;;4946779;28;20476;-70
2022/08/06 12:35:26;;;;;;;0.55;0.25;;;25.20;40.40;;;;;;4946286;29;20038;-70
2022/08/06 12:37:52;;;;;;;0.77;0.25;;;25.30;39.70;;;;;;4958471;28;20035;-70
2022/08/06 12:40:37;;;;;;;0.08;0.08;;;25.30;38.80;;;;;;4944890;28;20046;-70
2022/08/06 12:43:03;;;;;;;0.63;0.20;;;25.30;40.00;;;;;;4941092;28;20543;-70
2022/08/06 12:45:31;;;;;;;1.23;0.30;;;25.30;39.20;;;;;;4942287;29;20165;-70
2022/08/06 12:48:02;;;;;;;1.67;0.10;;;25.30;39.50;;;;;;4942344;29;20568;-69
2022/08/06 12:50:29;;;;;;;0.68;0.22;;;25.20;38.90;;;;;;4944021;29;20098;-70
2022/08/06 12:53:14;;;;;;;0.80;0.20;;;25.20;38.90;;;;;;4946701;28;20031;-70
2022/08/06 12:55:51;;;;;;;0.28;0.15;;;25.30;39.10;;;;;;4942180;28;20491;-71
2022/08/06 12:58:31;;;;;;;1.08;0.30;;;25.30;38.80;;;;;;4942240;28;20095;-70
2022/08/06 13:00:59;;;;;;;0.20;0.10;;;25.30;39.10;;;;;;4942214;29;20122;-72
2022/08/06 13:03:25;;;;;;;0.22;0.20;;;25.40;39.30;;;;;;4944557;28;20031;-70
2022/08/06 13:05:54;;;;;;;0.85;0.17;;;25.60;39.60;;;;;;4939988;28;20042;-71
2022/08/06 13:08:21;;;;;;;0.40;0.13;;;25.80;39.10;;;;;;4939164;29;20038;-70
2022/08/06 13:10:51;;;;;;;0.60;0.15;;;25.90;38.40;;;;;;4947349;29;20745;-70